sensor_id;sensor_type;location;lat;lon;timestamp;temperature;humidity
69823;SHT31;57119;52.516;13.508;2023-01-29T00:02:07;-0.32;88.51
69823;SHT31;57119;52.516;13.508;2023-01-29T00:04:32;-0.31;88.75
69823;SHT31;57119;52.516;13.508;2023-01-29T00:06:58;-0.26;88.68
69823;SHT31;57119;52.516;13.508;2023-01-29T00:09:23;-0.31;88.79
69823;SHT31;57119;52.516;13.508;2023-01-29T00:11:48;-0.24;88.74
69823;SHT31;57119;52.516;13.508;2023-01-29T00:14:14;-0.19;88.62
69823;SHT31;57119;52.516;13.508;2023-01-29T00:16:39;-0.18;88.55
69823;SHT31;57119;52.516;13.508;2023-01-29T00:19:06;-0.29;89.01
69823;SHT31;57119;52.516;13.508;2023-01-29T00:21:31;-0.19;88.74
69823;SHT31;57119;52.516;13.508;2023-01-29T00:23:57;-0.17;88.72
69823;SHT31;57119;52.516;13.508;2023-01-29T00:26:22;-0.14;88.59
69823;SHT31;57119;52.516;13.508;2023-01-29T00:28:48;-0.14;88.98
69823;SHT31;57119;52.516;13.508;2023-01-29T00:31:17;-0.14;88.85
69823;SHT31;57119;52.516;13.508;2023-01-29T00:33:43;-0.22;88.92
69823;SHT31;57119;52.516;13.508;2023-01-29T00:36:12;-0.11;88.81
69823;SHT31;57119;52.516;13.508;2023-01-29T00:38:38;-0.14;88.96
69823;SHT31;57119;52.516;13.508;2023-01-29T00:41:08;-0.13;88.67
69823;SHT31;57119;52.516;13.508;2023-01-29T00:43:53;-0.17;88.83
69823;SHT31;57119;52.516;13.508;2023-01-29T00:46:36;-0.18;88.88
69823;SHT31;57119;52.516;13.508;2023-01-29T00:49:03;-0.18;88.87
69823;SHT31;57119;52.516;13.508;2023-01-29T00:51:28;-0.21;88.92
69823;SHT31;57119;52.516;13.508;2023-01-29T00:53:54;-0.21;89.39
69823;SHT31;57119;52.516;13.508;2023-01-29T00:56:23;-0.13;89.12
69823;SHT31;57119;52.516;13.508;2023-01-29T00:58:48;-0.19;89.36
69823;SHT31;57119;52.516;13.508;2023-01-29T01:01:14;-0.13;89.06
69823;SHT31;57119;52.516;13.508;2023-01-29T01:03:39;-0.08;88.95
69823;SHT31;57119;52.516;13.508;2023-01-29T01:06:08;-0.10;89.01
69823;SHT31;57119;52.516;13.508;2023-01-29T01:08:34;-0.10;89.12
69823;SHT31;57119;52.516;13.508;2023-01-29T01:11:18;-0.11;89.14
69823;SHT31;57119;52.516;13.508;2023-01-29T01:13:44;-0.11;89.25
69823;SHT31;57119;52.516;13.508;2023-01-29T01:16:15;-0.08;89.31
69823;SHT31;57119;52.516;13.508;2023-01-29T01:18:41;-0.03;89.25
69823;SHT31;57119;52.516;13.508;2023-01-29T01:21:07;0.00;89.27
69823;SHT31;57119;52.516;13.508;2023-01-29T01:23:32;-0.01;89.31
69823;SHT31;57119;52.516;13.508;2023-01-29T01:25:58;0.00;89.32
69823;SHT31;57119;52.516;13.508;2023-01-29T01:28:24;0.03;89.33
69823;SHT31;57119;52.516;13.508;2023-01-29T01:30:49;0.09;89.46
69823;SHT31;57119;52.516;13.508;2023-01-29T01:33:15;0.00;89.48
69823;SHT31;57119;52.516;13.508;2023-01-29T01:35:40;0.11;89.38
69823;SHT31;57119;52.516;13.508;2023-01-29T01:38:06;0.17;89.27
69823;SHT31;57119;52.516;13.508;2023-01-29T01:40:31;0.11;89.77
69823;SHT31;57119;52.516;13.508;2023-01-29T01:42:58;0.23;89.51
69823;SHT31;57119;52.516;13.508;2023-01-29T01:50:30;0.16;90.17
69823;SHT31;57119;52.516;13.508;2023-01-29T01:53:01;0.30;90.00
69823;SHT31;57119;52.516;13.508;2023-01-29T01:55:31;0.33;89.99
69823;SHT31;57119;52.516;13.508;2023-01-29T01:58:03;0.34;90.11
69823;SHT31;57119;52.516;13.508;2023-01-29T02:00:30;0.37;90.10
69823;SHT31;57119;52.516;13.508;2023-01-29T02:02:56;0.37;90.09
69823;SHT31;57119;52.516;13.508;2023-01-29T02:05:40;0.31;90.52
69823;SHT31;57119;52.516;13.508;2023-01-29T02:08:35;0.37;90.46
69823;SHT31;57119;52.516;13.508;2023-01-29T02:11:20;0.37;90.45
69823;SHT31;57119;52.516;13.508;2023-01-29T02:13:45;0.37;90.25
69823;SHT31;57119;52.516;13.508;2023-01-29T02:16:11;0.38;90.42
69823;SHT31;57119;52.516;13.508;2023-01-29T02:18:36;0.37;90.51
69823;SHT31;57119;52.516;13.508;2023-01-29T02:21:19;0.38;90.42
69823;SHT31;57119;52.516;13.508;2023-01-29T02:26:37;0.26;90.66
69823;SHT31;57119;52.516;13.508;2023-01-29T02:29:12;0.33;90.65
69823;SHT31;57119;52.516;13.508;2023-01-29T02:34:28;0.34;90.33
69823;SHT31;57119;52.516;13.508;2023-01-29T02:37:07;0.24;90.36
69823;SHT31;57119;52.516;13.508;2023-01-29T02:39:47;0.20;90.50
69823;SHT31;57119;52.516;13.508;2023-01-29T02:42:23;0.17;90.77
69823;SHT31;57119;52.516;13.508;2023-01-29T02:44:59;0.26;90.57
69823;SHT31;57119;52.516;13.508;2023-01-29T02:47:41;0.24;90.58
69823;SHT31;57119;52.516;13.508;2023-01-29T02:50:27;0.27;90.37
69823;SHT31;57119;52.516;13.508;2023-01-29T02:53:05;0.23;90.54
69823;SHT31;57119;52.516;13.508;2023-01-29T02:58:06;0.23;90.61
69823;SHT31;57119;52.516;13.508;2023-01-29T03:00:36;0.16;90.73
69823;SHT31;57119;52.516;13.508;2023-01-29T03:03:15;0.17;90.85
69823;SHT31;57119;52.516;13.508;2023-01-29T03:08:17;0.09;91.17
69823;SHT31;57119;52.516;13.508;2023-01-29T03:10:56;0.10;91.00
69823;SHT31;57119;52.516;13.508;2023-01-29T03:16:11;0.21;91.13
69823;SHT31;57119;52.516;13.508;2023-01-29T03:18:43;0.18;91.02
69823;SHT31;57119;52.516;13.508;2023-01-29T03:21:13;0.20;91.07
69823;SHT31;57119;52.516;13.508;2023-01-29T03:23:59;0.21;91.14
69823;SHT31;57119;52.516;13.508;2023-01-29T03:26:43;0.20;91.24
69823;SHT31;57119;52.516;13.508;2023-01-29T03:29:33;0.21;91.32
69823;SHT31;57119;52.516;13.508;2023-01-29T03:32:20;0.24;91.32
69823;SHT31;57119;52.516;13.508;2023-01-29T03:34:51;0.24;91.42
69823;SHT31;57119;52.516;13.508;2023-01-29T03:37:23;0.24;91.50
69823;SHT31;57119;52.516;13.508;2023-01-29T03:39:50;0.23;91.41
69823;SHT31;57119;52.516;13.508;2023-01-29T03:42:55;0.17;91.84
69823;SHT31;57119;52.516;13.508;2023-01-29T03:48:11;0.26;91.78
69823;SHT31;57119;52.516;13.508;2023-01-29T03:50:56;0.31;91.70
69823;SHT31;57119;52.516;13.508;2023-01-29T03:53:31;0.27;92.05
69823;SHT31;57119;52.516;13.508;2023-01-29T03:56:00;0.36;91.82
69823;SHT31;57119;52.516;13.508;2023-01-29T03:58:41;0.28;91.94
69823;SHT31;57119;52.516;13.508;2023-01-29T04:01:39;0.37;91.68
69823;SHT31;57119;52.516;13.508;2023-01-29T04:04:14;0.37;91.62
69823;SHT31;57119;52.516;13.508;2023-01-29T04:06:43;0.31;91.90
69823;SHT31;57119;52.516;13.508;2023-01-29T04:09:17;0.33;92.00
69823;SHT31;57119;52.516;13.508;2023-01-29T04:11:54;0.31;92.05
69823;SHT31;57119;52.516;13.508;2023-01-29T04:14:22;0.37;91.97
69823;SHT31;57119;52.516;13.508;2023-01-29T04:16:50;0.34;92.19
69823;SHT31;57119;52.516;13.508;2023-01-29T04:19:16;0.37;92.12
69823;SHT31;57119;52.516;13.508;2023-01-29T04:21:42;0.31;92.51
69823;SHT31;57119;52.516;13.508;2023-01-29T04:24:09;0.40;92.28
69823;SHT31;57119;52.516;13.508;2023-01-29T04:26:50;0.38;92.32
69823;SHT31;57119;52.516;13.508;2023-01-29T04:32:14;0.27;92.69
69823;SHT31;57119;52.516;13.508;2023-01-29T04:34:47;0.26;93.18
69823;SHT31;57119;52.516;13.508;2023-01-29T04:37:25;0.30;93.36
69823;SHT31;57119;52.516;13.508;2023-01-29T04:40:17;0.28;93.89
69823;SHT31;57119;52.516;13.508;2023-01-29T04:50:28;0.24;94.85
69823;SHT31;57119;52.516;13.508;2023-01-29T04:58:02;0.16;95.29
69823;SHT31;57119;52.516;13.508;2023-01-29T05:00:33;0.17;95.33
69823;SHT31;57119;52.516;13.508;2023-01-29T05:03:00;0.11;95.78
69823;SHT31;57119;52.516;13.508;2023-01-29T05:05:26;0.18;95.87
69823;SHT31;57119;52.516;13.508;2023-01-29T05:07:53;0.09;96.27
69823;SHT31;57119;52.516;13.508;2023-01-29T05:10:20;0.17;96.27
69823;SHT31;57119;52.516;13.508;2023-01-29T05:12:50;0.14;96.56
69823;SHT31;57119;52.516;13.508;2023-01-29T05:15:22;0.14;96.86
69823;SHT31;57119;52.516;13.508;2023-01-29T05:17:48;0.09;97.59
69823;SHT31;57119;52.516;13.508;2023-01-29T05:20:14;0.17;97.54
69823;SHT31;57119;52.516;13.508;2023-01-29T05:22:40;0.17;97.43
69823;SHT31;57119;52.516;13.508;2023-01-29T05:25:27;0.11;98.25
69823;SHT31;57119;52.516;13.508;2023-01-29T05:27:53;0.13;99.00
69823;SHT31;57119;52.516;13.508;2023-01-29T05:30:38;0.10;99.69
69823;SHT31;57119;52.516;13.508;2023-01-29T05:33:09;0.10;99.91
69823;SHT31;57119;52.516;13.508;2023-01-29T05:35:35;0.11;99.99
69823;SHT31;57119;52.516;13.508;2023-01-29T05:38:02;0.10;99.99
69823;SHT31;57119;52.516;13.508;2023-01-29T05:40:27;0.09;99.99
69823;SHT31;57119;52.516;13.508;2023-01-29T05:42:52;0.11;99.99
69823;SHT31;57119;52.516;13.508;2023-01-29T05:45:18;0.06;99.99
69823;SHT31;57119;52.516;13.508;2023-01-29T05:47:44;0.07;99.99
69823;SHT31;57119;52.516;13.508;2023-01-29T05:50:10;0.05;99.99
69823;SHT31;57119;52.516;13.508;2023-01-29T05:52:36;0.14;99.99
69823;SHT31;57119;52.516;13.508;2023-01-29T05:55:01;0.14;99.99
69823;SHT31;57119;52.516;13.508;2023-01-29T05:57:27;0.24;99.99
69823;SHT31;57119;52.516;13.508;2023-01-29T05:59:52;0.18;99.99
69823;SHT31;57119;52.516;13.508;2023-01-29T06:02:17;0.30;99.99
69823;SHT31;57119;52.516;13.508;2023-01-29T06:04:43;0.14;99.99
69823;SHT31;57119;52.516;13.508;2023-01-29T06:07:08;0.13;99.99
69823;SHT31;57119;52.516;13.508;2023-01-29T06:09:33;0.26;99.99
69823;SHT31;57119;52.516;13.508;2023-01-29T06:11:59;0.37;99.99
69823;SHT31;57119;52.516;13.508;2023-01-29T06:14:24;0.34;99.99
69823;SHT31;57119;52.516;13.508;2023-01-29T06:16:49;0.31;99.99
69823;SHT31;57119;52.516;13.508;2023-01-29T06:19:15;0.40;99.99
69823;SHT31;57119;52.516;13.508;2023-01-29T06:21:42;0.34;99.99
69823;SHT31;57119;52.516;13.508;2023-01-29T06:24:07;0.44;99.99
69823;SHT31;57119;52.516;13.508;2023-01-29T06:26:33;0.38;99.99
69823;SHT31;57119;52.516;13.508;2023-01-29T06:28:58;0.47;99.99
69823;SHT31;57119;52.516;13.508;2023-01-29T06:31:23;0.47;99.99
69823;SHT31;57119;52.516;13.508;2023-01-29T06:33:49;0.48;99.99
69823;SHT31;57119;52.516;13.508;2023-01-29T06:36:14;0.48;99.99
69823;SHT31;57119;52.516;13.508;2023-01-29T06:38:39;0.53;99.99
69823;SHT31;57119;52.516;13.508;2023-01-29T06:41:18;0.45;99.99
69823;SHT31;57119;52.516;13.508;2023-01-29T06:43:53;0.53;99.99
69823;SHT31;57119;52.516;13.508;2023-01-29T06:46:22;0.40;99.99
69823;SHT31;57119;52.516;13.508;2023-01-29T06:48:50;0.54;99.99
69823;SHT31;57119;52.516;13.508;2023-01-29T06:51:19;0.53;99.99
69823;SHT31;57119;52.516;13.508;2023-01-29T06:53:55;0.51;99.99
69823;SHT31;57119;52.516;13.508;2023-01-29T06:56:25;0.57;99.99
69823;SHT31;57119;52.516;13.508;2023-01-29T06:59:03;0.57;99.99
69823;SHT31;57119;52.516;13.508;2023-01-29T07:04:28;0.55;99.99
69823;SHT31;57119;52.516;13.508;2023-01-29T07:07:05;0.62;99.99
69823;SHT31;57119;52.516;13.508;2023-01-29T07:09:42;0.66;99.99
69823;SHT31;57119;52.516;13.508;2023-01-29T07:12:16;0.61;99.99
69823;SHT31;57119;52.516;13.508;2023-01-29T07:14:57;0.66;99.99
69823;SHT31;57119;52.516;13.508;2023-01-29T07:17:31;0.69;99.99
69823;SHT31;57119;52.516;13.508;2023-01-29T07:20:04;0.68;99.99
69823;SHT31;57119;52.516;13.508;2023-01-29T07:22:47;0.74;99.99
69823;SHT31;57119;52.516;13.508;2023-01-29T07:25:16;0.65;99.99
69823;SHT31;57119;52.516;13.508;2023-01-29T07:28:04;0.74;99.99
69823;SHT31;57119;52.516;13.508;2023-01-29T07:30:58;0.72;99.99
69823;SHT31;57119;52.516;13.508;2023-01-29T07:33:27;0.76;99.99
69823;SHT31;57119;52.516;13.508;2023-01-29T07:35:52;0.74;99.99
69823;SHT31;57119;52.516;13.508;2023-01-29T07:38:18;0.76;99.99
69823;SHT31;57119;52.516;13.508;2023-01-29T07:40:43;0.64;99.99
69823;SHT31;57119;52.516;13.508;2023-01-29T07:43:09;0.69;99.99
69823;SHT31;57119;52.516;13.508;2023-01-29T07:45:36;0.78;99.99
69823;SHT31;57119;52.516;13.508;2023-01-29T07:48:04;0.74;99.99
69823;SHT31;57119;52.516;13.508;2023-01-29T07:50:30;0.81;99.99
69823;SHT31;57119;52.516;13.508;2023-01-29T07:52:56;0.81;99.99
69823;SHT31;57119;52.516;13.508;2023-01-29T07:55:22;0.85;99.99
69823;SHT31;57119;52.516;13.508;2023-01-29T07:57:54;0.83;99.99
69823;SHT31;57119;52.516;13.508;2023-01-29T08:00:20;0.83;99.99
69823;SHT31;57119;52.516;13.508;2023-01-29T08:02:46;0.88;99.99
69823;SHT31;57119;52.516;13.508;2023-01-29T08:05:11;0.88;99.99
69823;SHT31;57119;52.516;13.508;2023-01-29T08:07:37;0.86;99.99
69823;SHT31;57119;52.516;13.508;2023-01-29T08:10:03;0.88;99.99
69823;SHT31;57119;52.516;13.508;2023-01-29T08:12:28;0.89;99.99
69823;SHT31;57119;52.516;13.508;2023-01-29T08:14:54;0.89;99.99
69823;SHT31;57119;52.516;13.508;2023-01-29T08:17:19;0.89;99.99
69823;SHT31;57119;52.516;13.508;2023-01-29T08:19:45;0.89;99.99
69823;SHT31;57119;52.516;13.508;2023-01-29T08:22:10;0.96;99.99
69823;SHT31;57119;52.516;13.508;2023-01-29T08:24:36;0.95;99.99
69823;SHT31;57119;52.516;13.508;2023-01-29T08:27:02;0.86;99.99
69823;SHT31;57119;52.516;13.508;2023-01-29T08:29:30;0.81;99.99
69823;SHT31;57119;52.516;13.508;2023-01-29T08:32:21;0.93;99.99
69823;SHT31;57119;52.516;13.508;2023-01-29T08:34:56;0.92;99.99
69823;SHT31;57119;52.516;13.508;2023-01-29T08:37:26;0.93;99.99
69823;SHT31;57119;52.516;13.508;2023-01-29T08:40:10;0.85;99.99
69823;SHT31;57119;52.516;13.508;2023-01-29T08:42:48;0.91;99.99
69823;SHT31;57119;52.516;13.508;2023-01-29T08:45:17;0.95;99.99
69823;SHT31;57119;52.516;13.508;2023-01-29T08:47:57;0.95;99.99
69823;SHT31;57119;52.516;13.508;2023-01-29T08:50:36;1.00;99.99
69823;SHT31;57119;52.516;13.508;2023-01-29T08:53:22;1.02;99.99
69823;SHT31;57119;52.516;13.508;2023-01-29T08:55:49;1.04;99.99
69823;SHT31;57119;52.516;13.508;2023-01-29T08:58:14;1.04;99.99
69823;SHT31;57119;52.516;13.508;2023-01-29T09:00:40;0.99;99.99
69823;SHT31;57119;52.516;13.508;2023-01-29T09:03:05;1.15;99.99
69823;SHT31;57119;52.516;13.508;2023-01-29T09:05:33;1.17;99.99
69823;SHT31;57119;52.516;13.508;2023-01-29T09:07:58;1.17;99.99
69823;SHT31;57119;52.516;13.508;2023-01-29T09:10:24;1.22;99.99
69823;SHT31;57119;52.516;13.508;2023-01-29T09:12:49;1.26;99.99
69823;SHT31;57119;52.516;13.508;2023-01-29T09:15:15;1.26;99.99
69823;SHT31;57119;52.516;13.508;2023-01-29T09:17:40;1.29;99.99
69823;SHT31;57119;52.516;13.508;2023-01-29T09:20:06;1.30;99.99
69823;SHT31;57119;52.516;13.508;2023-01-29T09:22:32;1.34;99.99
69823;SHT31;57119;52.516;13.508;2023-01-29T09:24:57;1.33;99.99
69823;SHT31;57119;52.516;13.508;2023-01-29T09:27:23;1.36;99.99
69823;SHT31;57119;52.516;13.508;2023-01-29T09:29:49;1.41;99.99
69823;SHT31;57119;52.516;13.508;2023-01-29T09:32:14;1.50;99.99
69823;SHT31;57119;52.516;13.508;2023-01-29T09:34:40;1.50;99.99
69823;SHT31;57119;52.516;13.508;2023-01-29T09:37:05;1.57;99.99
69823;SHT31;57119;52.516;13.508;2023-01-29T09:39:30;1.60;99.99
69823;SHT31;57119;52.516;13.508;2023-01-29T09:42:10;1.58;99.99
69823;SHT31;57119;52.516;13.508;2023-01-29T09:44:59;1.60;99.99
69823;SHT31;57119;52.516;13.508;2023-01-29T09:47:27;1.62;99.99
69823;SHT31;57119;52.516;13.508;2023-01-29T09:52:29;1.74;99.80
69823;SHT31;57119;52.516;13.508;2023-01-29T09:55:05;1.79;99.73
69823;SHT31;57119;52.516;13.508;2023-01-29T09:57:52;1.86;99.16
69823;SHT31;57119;52.516;13.508;2023-01-29T10:00:24;1.94;98.99
69823;SHT31;57119;52.516;13.508;2023-01-29T10:03:19;1.99;98.61
69823;SHT31;57119;52.516;13.508;2023-01-29T10:06:38;2.02;98.40
69823;SHT31;57119;52.516;13.508;2023-01-29T10:12:14;2.10;97.77
69823;SHT31;57119;52.516;13.508;2023-01-29T10:15:11;2.33;97.81
69823;SHT31;57119;52.516;13.508;2023-01-29T10:18:10;2.36;97.36
69823;SHT31;57119;52.516;13.508;2023-01-29T10:23:33;2.53;96.37
69823;SHT31;57119;52.516;13.508;2023-01-29T10:26:01;2.43;96.83
69823;SHT31;57119;52.516;13.508;2023-01-29T10:28:40;2.67;96.44
69823;SHT31;57119;52.516;13.508;2023-01-29T10:31:29;2.76;95.92
69823;SHT31;57119;52.516;13.508;2023-01-29T10:34:03;2.71;95.63
69823;SHT31;57119;52.516;13.508;2023-01-29T10:36:39;2.84;95.80
69823;SHT31;57119;52.516;13.508;2023-01-29T10:39:17;2.84;95.43
69823;SHT31;57119;52.516;13.508;2023-01-29T10:47:43;2.91;94.78
69823;SHT31;57119;52.516;13.508;2023-01-29T10:50:49;2.91;94.64
69823;SHT31;57119;52.516;13.508;2023-01-29T11:01:50;3.22;92.96
69823;SHT31;57119;52.516;13.508;2023-01-29T11:04:15;3.30;93.02
69823;SHT31;57119;52.516;13.508;2023-01-29T11:06:41;3.29;92.89
69823;SHT31;57119;52.516;13.508;2023-01-29T11:09:27;3.49;92.37
69823;SHT31;57119;52.516;13.508;2023-01-29T11:12:08;3.47;92.16
69823;SHT31;57119;52.516;13.508;2023-01-29T11:14:50;3.52;91.71
69823;SHT31;57119;52.516;13.508;2023-01-29T11:17:20;3.63;91.53
69823;SHT31;57119;52.516;13.508;2023-01-29T11:19:47;3.64;91.11
69823;SHT31;57119;52.516;13.508;2023-01-29T11:22:28;3.71;91.01
69823;SHT31;57119;52.516;13.508;2023-01-29T11:25:16;3.74;90.85
69823;SHT31;57119;52.516;13.508;2023-01-29T11:27:54;3.78;90.70
69823;SHT31;57119;52.516;13.508;2023-01-29T11:30:26;3.95;90.58
69823;SHT31;57119;52.516;13.508;2023-01-29T11:35:31;4.02;90.11
69823;SHT31;57119;52.516;13.508;2023-01-29T11:40:40;3.91;90.04
69823;SHT31;57119;52.516;13.508;2023-01-29T11:43:29;3.98;89.58
69823;SHT31;57119;52.516;13.508;2023-01-29T11:46:05;3.88;89.76
69823;SHT31;57119;52.516;13.508;2023-01-29T11:48:46;3.94;90.23
69823;SHT31;57119;52.516;13.508;2023-01-29T11:51:35;4.04;89.55
69823;SHT31;57119;52.516;13.508;2023-01-29T11:54:03;3.98;89.42
69823;SHT31;57119;52.516;13.508;2023-01-29T11:56:41;3.94;89.32
69823;SHT31;57119;52.516;13.508;2023-01-29T11:59:41;3.97;88.74
69823;SHT31;57119;52.516;13.508;2023-01-29T12:02:25;3.85;88.87
69823;SHT31;57119;52.516;13.508;2023-01-29T12:04:53;3.93;88.96
69823;SHT31;57119;52.516;13.508;2023-01-29T12:07:19;3.81;88.66
69823;SHT31;57119;52.516;13.508;2023-01-29T12:09:51;3.94;88.74
69823;SHT31;57119;52.516;13.508;2023-01-29T12:12:31;3.75;88.96
69823;SHT31;57119;52.516;13.508;2023-01-29T12:15:18;3.83;88.61
69823;SHT31;57119;52.516;13.508;2023-01-29T12:17:55;3.84;88.68
69823;SHT31;57119;52.516;13.508;2023-01-29T12:20:29;3.81;88.37
69823;SHT31;57119;52.516;13.508;2023-01-29T12:25:53;3.91;88.69
69823;SHT31;57119;52.516;13.508;2023-01-29T12:28:37;3.90;88.80
69823;SHT31;57119;52.516;13.508;2023-01-29T12:31:35;3.87;88.59
69823;SHT31;57119;52.516;13.508;2023-01-29T12:36:44;4.04;88.49
69823;SHT31;57119;52.516;13.508;2023-01-29T12:39:18;3.94;88.38
69823;SHT31;57119;52.516;13.508;2023-01-29T12:41:48;3.94;88.39
69823;SHT31;57119;52.516;13.508;2023-01-29T12:44:25;3.94;88.45
69823;SHT31;57119;52.516;13.508;2023-01-29T12:46:56;3.80;88.46
69823;SHT31;57119;52.516;13.508;2023-01-29T12:49:29;3.70;88.90
69823;SHT31;57119;52.516;13.508;2023-01-29T12:52:03;3.87;89.16
69823;SHT31;57119;52.516;13.508;2023-01-29T12:54:52;3.74;89.10
69823;SHT31;57119;52.516;13.508;2023-01-29T12:58:11;3.69;89.19
69823;SHT31;57119;52.516;13.508;2023-01-29T13:00:24;3.70;89.24
69823;SHT31;57119;52.516;13.508;2023-01-29T13:03:07;3.66;89.30
69823;SHT31;57119;52.516;13.508;2023-01-29T13:05:42;3.62;89.32
69823;SHT31;57119;52.516;13.508;2023-01-29T13:08:58;3.69;89.46
69823;SHT31;57119;52.516;13.508;2023-01-29T13:11:01;3.60;89.14
69823;SHT31;57119;52.516;13.508;2023-01-29T13:13:34;3.57;89.48
69823;SHT31;57119;52.516;13.508;2023-01-29T13:16:03;3.57;89.14
69823;SHT31;57119;52.516;13.508;2023-01-29T13:18:40;3.54;89.44
69823;SHT31;57119;52.516;13.508;2023-01-29T13:21:17;3.50;89.53
69823;SHT31;57119;52.516;13.508;2023-01-29T13:24:01;3.50;89.62
69823;SHT31;57119;52.516;13.508;2023-01-29T13:26:27;3.54;89.74
69823;SHT31;57119;52.516;13.508;2023-01-29T13:28:53;3.56;89.44
69823;SHT31;57119;52.516;13.508;2023-01-29T13:31:32;3.63;89.46
69823;SHT31;57119;52.516;13.508;2023-01-29T13:34:30;3.67;89.74
69823;SHT31;57119;52.516;13.508;2023-01-29T13:36:59;3.74;89.42
69823;SHT31;57119;52.516;13.508;2023-01-29T13:39:30;3.64;89.14
69823;SHT31;57119;52.516;13.508;2023-01-29T13:41:57;3.60;89.60
69823;SHT31;57119;52.516;13.508;2023-01-29T13:44:27;3.60;89.60
69823;SHT31;57119;52.516;13.508;2023-01-29T13:46:58;3.60;89.81
69823;SHT31;57119;52.516;13.508;2023-01-29T13:52:26;3.57;89.83
69823;SHT31;57119;52.516;13.508;2023-01-29T13:55:01;3.53;90.05
69823;SHT31;57119;52.516;13.508;2023-01-29T14:00:00;3.33;91.09
69823;SHT31;57119;52.516;13.508;2023-01-29T14:02:27;3.30;90.86
69823;SHT31;57119;52.516;13.508;2023-01-29T14:07:57;3.27;91.07
69823;SHT31;57119;52.516;13.508;2023-01-29T14:10:28;3.20;91.45
69823;SHT31;57119;52.516;13.508;2023-01-29T14:15:40;3.27;92.01
69823;SHT31;57119;52.516;13.508;2023-01-29T14:18:14;3.23;91.92
69823;SHT31;57119;52.516;13.508;2023-01-29T14:25:42;2.95;94.08
69823;SHT31;57119;52.516;13.508;2023-01-29T14:28:17;2.81;94.81
69823;SHT31;57119;52.516;13.508;2023-01-29T14:30:47;2.83;94.78
69823;SHT31;57119;52.516;13.508;2023-01-29T14:33:33;2.80;95.65
69823;SHT31;57119;52.516;13.508;2023-01-29T14:36:05;2.84;95.16
69823;SHT31;57119;52.516;13.508;2023-01-29T14:38:32;2.87;95.33
69823;SHT31;57119;52.516;13.508;2023-01-29T14:41:25;2.85;95.40
69823;SHT31;57119;52.516;13.508;2023-01-29T14:46:55;2.84;95.61
69823;SHT31;57119;52.516;13.508;2023-01-29T14:52:23;2.67;96.50
69823;SHT31;57119;52.516;13.508;2023-01-29T14:54:51;2.71;96.71
69823;SHT31;57119;52.516;13.508;2023-01-29T14:57:18;2.77;96.61
69823;SHT31;57119;52.516;13.508;2023-01-29T14:59:53;2.65;96.85
69823;SHT31;57119;52.516;13.508;2023-01-29T15:02:27;2.51;97.72
69823;SHT31;57119;52.516;13.508;2023-01-29T15:05:02;2.58;97.39
69823;SHT31;57119;52.516;13.508;2023-01-29T15:07:40;2.53;97.86
69823;SHT31;57119;52.516;13.508;2023-01-29T15:10:16;2.47;98.14
69823;SHT31;57119;52.516;13.508;2023-01-29T15:13:24;2.47;98.38
69823;SHT31;57119;52.516;13.508;2023-01-29T15:16:01;2.43;98.65
69823;SHT31;57119;52.516;13.508;2023-01-29T15:18:36;2.37;98.98
69823;SHT31;57119;52.516;13.508;2023-01-29T15:21:10;2.33;99.11
69823;SHT31;57119;52.516;13.508;2023-01-29T15:23:38;2.29;99.50
69823;SHT31;57119;52.516;13.508;2023-01-29T15:26:08;2.22;99.61
69823;SHT31;57119;52.516;13.508;2023-01-29T15:28:37;2.22;99.99
69823;SHT31;57119;52.516;13.508;2023-01-29T15:31:05;2.22;99.98
69823;SHT31;57119;52.516;13.508;2023-01-29T15:33:36;2.18;99.92
69823;SHT31;57119;52.516;13.508;2023-01-29T15:36:03;2.15;99.77
69823;SHT31;57119;52.516;13.508;2023-01-29T15:38:30;2.18;99.88
69823;SHT31;57119;52.516;13.508;2023-01-29T15:41:12;2.16;99.99
69823;SHT31;57119;52.516;13.508;2023-01-29T15:43:45;2.20;99.88
69823;SHT31;57119;52.516;13.508;2023-01-29T15:46:19;2.19;99.67
69823;SHT31;57119;52.516;13.508;2023-01-29T15:48:47;2.20;99.22
69823;SHT31;57119;52.516;13.508;2023-01-29T15:51:19;2.19;99.16
69823;SHT31;57119;52.516;13.508;2023-01-29T15:53:49;2.20;99.03
69823;SHT31;57119;52.516;13.508;2023-01-29T15:56:27;2.23;98.82
69823;SHT31;57119;52.516;13.508;2023-01-29T15:58:54;2.22;98.72
69823;SHT31;57119;52.516;13.508;2023-01-29T16:01:25;2.23;98.62
69823;SHT31;57119;52.516;13.508;2023-01-29T16:03:51;2.25;98.73
69823;SHT31;57119;52.516;13.508;2023-01-29T16:06:17;2.22;98.41
69823;SHT31;57119;52.516;13.508;2023-01-29T16:08:48;2.22;98.58
69823;SHT31;57119;52.516;13.508;2023-01-29T16:11:14;2.22;98.51
69823;SHT31;57119;52.516;13.508;2023-01-29T16:13:41;2.22;98.74
69823;SHT31;57119;52.516;13.508;2023-01-29T16:18:42;2.22;98.33
69823;SHT31;57119;52.516;13.508;2023-01-29T16:21:28;2.20;98.36
69823;SHT31;57119;52.516;13.508;2023-01-29T16:24:00;2.20;98.41
69823;SHT31;57119;52.516;13.508;2023-01-29T16:26:30;2.19;98.24
69823;SHT31;57119;52.516;13.508;2023-01-29T16:29:06;2.23;98.50
69823;SHT31;57119;52.516;13.508;2023-01-29T16:31:32;2.23;98.17
69823;SHT31;57119;52.516;13.508;2023-01-29T16:34:13;2.26;98.22
69823;SHT31;57119;52.516;13.508;2023-01-29T16:36:44;2.29;98.00
69823;SHT31;57119;52.516;13.508;2023-01-29T16:39:23;2.25;98.01
69823;SHT31;57119;52.516;13.508;2023-01-29T16:44:46;2.20;98.51
69823;SHT31;57119;52.516;13.508;2023-01-29T16:47:22;2.26;98.29
69823;SHT31;57119;52.516;13.508;2023-01-29T16:49:51;2.30;98.22
69823;SHT31;57119;52.516;13.508;2023-01-29T16:52:19;2.25;97.84
69823;SHT31;57119;52.516;13.508;2023-01-29T16:54:46;2.20;98.26
69823;SHT31;57119;52.516;13.508;2023-01-29T16:57:24;2.28;97.98
69823;SHT31;57119;52.516;13.508;2023-01-29T16:59:53;2.30;97.75
69823;SHT31;57119;52.516;13.508;2023-01-29T17:02:26;2.23;98.02
69823;SHT31;57119;52.516;13.508;2023-01-29T17:04:56;2.29;97.66
69823;SHT31;57119;52.516;13.508;2023-01-29T17:07:23;2.28;97.65
69823;SHT31;57119;52.516;13.508;2023-01-29T17:09:52;2.26;97.82
69823;SHT31;57119;52.516;13.508;2023-01-29T17:12:22;2.20;97.69
69823;SHT31;57119;52.516;13.508;2023-01-29T17:14:57;2.19;98.11
69823;SHT31;57119;52.516;13.508;2023-01-29T17:17:32;2.15;98.08
69823;SHT31;57119;52.516;13.508;2023-01-29T17:20:08;2.16;97.83
69823;SHT31;57119;52.516;13.508;2023-01-29T17:22:35;2.13;97.96
69823;SHT31;57119;52.516;13.508;2023-01-29T17:25:00;2.03;98.23
69823;SHT31;57119;52.516;13.508;2023-01-29T17:27:26;2.08;98.41
69823;SHT31;57119;52.516;13.508;2023-01-29T17:29:52;2.03;98.43
69823;SHT31;57119;52.516;13.508;2023-01-29T17:32:18;2.02;98.50
69823;SHT31;57119;52.516;13.508;2023-01-29T17:34:44;2.06;98.25
69823;SHT31;57119;52.516;13.508;2023-01-29T17:37:13;2.01;98.50
69823;SHT31;57119;52.516;13.508;2023-01-29T17:39:39;2.06;98.03
69823;SHT31;57119;52.516;13.508;2023-01-29T17:42:04;2.05;98.19
69823;SHT31;57119;52.516;13.508;2023-01-29T17:44:29;2.05;98.43